• Join FlightAware (Why Join?)
  • Login
  • US Flag 
12:20AM EDT


 

Airport Tracker/Info


-or-


 

Live Flight TrackerFlight Track Log ✈ DAL3799 ✈ 23-Apr-2013 ✈ KDTW - CYOW

Flight Track Log - Related Links

Times and Time Zones

All times are in EDT time to prevent confusion due to time zone crossing. See the DAL3799 flight status page for this flight to view local times or setup timezone preferences in your user account.

Time Position Orientation Groundspeed Altitude Reporting Facility
EDT Latitude Longitude Course Direction KTS MPH feet Rate Location/Type
10:01PM 42.2036 -83.3556 16° North 148 170 1,200  Level Cleveland Center
10:02PM 42.1950 -83.3528 167° South 142 163 1,900 1,860 Climbing FAA TRACON SMA TRACON (SMA)
10:02PM 42.1833 -83.3506 172° South 149 171 2,400 1,500 Climbing FAA TRACON SMA TRACON (SMA)
10:02PM 42.1669 -83.3464 169° South 169 194 2,900 1,800 Climbing FAA TRACON SMA TRACON (SMA)
10:03PM 42.1494 -83.3439 174° South 182 209 3,600 2,220 Climbing FAA TRACON SMA TRACON (SMA)
10:03PM 42.1350 -83.3403 169° South 181 208 4,400 2,100 Climbing FAA TRACON SMA TRACON (SMA)
10:03PM 42.1189 -83.3300 155° Southeast 223 257 5,000 1,560 Climbing FAA TRACON SMA TRACON (SMA)
10:04PM 42.5586 -83.2291 12° North  Level FlightAware Approximate
10:04PM 42.1106 -83.3031 113° Southeast 278 320 5,500  Level FAA TRACON SMA TRACON (SMA)
10:04PM 42.1206 -83.2622 72° East 314 361 6,600 3,060 Climbing Cleveland Center
10:04PM 42.1339 -83.2333 58° Northeast 307 353 7,500 2,400 Climbing FAA TRACON SMA TRACON (SMA)
10:05PM 42.6811 -83.1924 12° North  Level FlightAware Approximate
10:05PM 42.1544 -83.2094 41° Northeast 317 365 8,200  Level FAA TRACON SMA TRACON (SMA)
10:05PM 42.1858 -83.1936 20° North 308 354 9,400 3,000 Climbing FAA TRACON SMA TRACON (SMA)
10:05PM 42.2131 -83.1908 North 316 364 10,200 2,100 Climbing FAA TRACON SMA TRACON (SMA)
10:06PM 42.8030 -83.1522 16° North  Level FlightAware Approximate
10:06PM 42.2397 -83.1878 North 317 365 10,800  Level FAA TRACON SMA TRACON (SMA)
10:06PM 42.2753 -83.1850 North 343 395 11,200 1,320 Climbing FAA TRACON SMA TRACON (SMA)
10:06PM 42.3056 -83.1825 North 356 410 11,700 1,200 Climbing FAA TRACON SMA TRACON (SMA)
10:07PM 42.3450 -83.1789 North 374 430 12,000 1,140 Climbing FAA TRACON SMA TRACON (SMA)
10:07PM 42.3772 -83.1767 North 376 433 12,500 1,200 Climbing FAA TRACON SMA TRACON (SMA)
10:07PM 42.4106 -83.1739 North 385 443 12,800 900 Climbing FAA TRACON SMA TRACON (SMA)
10:08PM 42.4442 -83.1711 North 392 451 13,100 1,200 Climbing FAA TRACON SMA TRACON (SMA)
10:08PM 42.4875 -83.1672 North 404 465 13,600 1,320 Climbing FAA TRACON SMA TRACON (SMA)
10:08PM 42.5222 -83.1644 North 406 467 14,000 1,020 Climbing FAA TRACON SMA TRACON (SMA)
10:09PM 42.5661 -83.1614 North 410 472 14,300 900 Climbing FAA TRACON SMA TRACON (SMA)
10:09PM 42.6014 -83.1586 North 414 476 14,600 720 Climbing FAA TRACON SMA TRACON (SMA)
10:09PM 42.6369 -83.1558 North 415 478 14,800 900 Climbing FAA TRACON SMA TRACON (SMA)
10:10PM 42.6817 -83.1525 North 418 481 15,200 900 Climbing FAA TRACON SMA TRACON (SMA)
10:10PM 42.7175 -83.1494 North 420 483 15,400 720 Climbing FAA TRACON SMA TRACON (SMA)
10:10PM 42.7539 -83.1469 North 423 487 15,700 1,020 Climbing FAA TRACON SMA TRACON (SMA)
10:11PM 42.7992 -83.1428 North 424 488 16,100 1,020 Climbing FAA TRACON SMA TRACON (SMA)
10:11PM 42.8358 -83.1353 North 436 502 16,400 900 Climbing FAA TRACON SMA TRACON (SMA)
10:11PM 42.8708 -83.1169 21° North 446 513 16,700 900 Climbing FAA TRACON SMA TRACON (SMA)
10:12PM 42.9069 -83.0733 41° Northeast 480 552 17,000 840 Climbing FAA TRACON SMA TRACON (SMA)
10:12PM 42.9292 -83.0300 55° Northeast 461 531 17,300 900 Climbing FAA TRACON SMA TRACON (SMA)
10:12PM 42.9403 -82.9781 74° East 466 536 17,600 1,020 Climbing FAA TRACON SMA TRACON (SMA)
10:13PM 42.9486 -82.9119 80° East 464 534 18,000 900 Climbing FAA TRACON SMA TRACON (SMA)
10:13PM 42.9561 -82.8597 79° East 460 529 18,200 720 Climbing FAA TRACON SMA TRACON (SMA)
10:13PM 42.9639 -82.8067 79° East 462 532 18,500 840 Climbing FAA TRACON SMA TRACON (SMA)
10:14PM 42.9747 -82.7539 74° East 465 535 18,800 420 Climbing FAA TRACON SMA TRACON (SMA)
10:14PM 42.9747 -82.7539 20° North 465 535 18,800 960 Level FAA TRACON SMA TRACON (SMA)
10:14PM 43.0000 -82.6000 77° East 470 541 19,600 1,080 Climbing Toronto Center
10:15PM 43.0333 -82.4167 76° East 470 541 20,500 900 Climbing Toronto Center
10:16PM 43.0667 -82.2500 75° East 470 541 21,400 900 Climbing Toronto Center
10:17PM 43.1000 -82.0833 75° East 470 541 22,300 900 Climbing Toronto Center
10:18PM 43.1500 -81.9000 69° East 470 541 23,200 900 Climbing Toronto Center
10:19PM 43.1833 -81.7333 75° East 470 541 24,100 900 Climbing Toronto Center
10:20PM 43.2167 -81.5500 76° East 470 541 25,000 900 Climbing Toronto Center
10:21PM 43.2500 -81.3667 76° East 470 541 26,000 900 Climbing Toronto Center
10:22PM 43.2833 -81.2167 73° East 470 541 26,800 900 Climbing Toronto Center
10:23PM 43.3000 -81.0500 82° East 470 541 27,800 1,020 Climbing Toronto Center
10:24PM 43.3333 -80.8667 76° East 460 529 28,900 600 Climbing Toronto Center
10:25PM 43.3833 -80.6833 69° East 470 541 29,000  Climbing Toronto Center
10:26PM 43.4167 -80.5000 76° East 490 564 29,000  Level Toronto Center
10:27PM 43.4667 -80.3167 69° East 500 575 29,000  Level Toronto Center
10:28PM 43.5000 -80.1333 76° East 510 587 29,000  Level Toronto Center
10:29PM 43.5500 -79.9500 69° East 510 587 29,000  Level Toronto Center
10:30PM 43.6000 -79.7667 69° East 520 598 29,000  Level Toronto Center
10:31PM 43.6500 -79.5833 69° East 520 598 29,000  Level Toronto Center
10:32PM 43.7000 -79.4000 69° East 520 598 29,000  Level Toronto Center
10:33PM 43.7667 -79.2167 63° Northeast 520 598 29,000  Level Toronto Center
10:34PM 43.8167 -79.0333 69° East 520 598 29,000  Level Toronto Center
10:35PM 43.8667 -78.8500 69° East 520 598 29,000  Level Toronto Center
10:36PM 43.9333 -78.6667 63° Northeast 520 598 29,000  Level Toronto Center
10:37PM 43.9667 -78.4667 77° East 520 598 29,000  Level Toronto Center
10:38PM 44.0167 -78.2833 69° East 510 587 29,000  Level Toronto Center
10:39PM 44.1000 -78.1000 58° Northeast 510 587 29,000  Level Toronto Center
10:40PM 44.1667 -77.9333 61° Northeast 510 587 29,000  Level Toronto Center
10:41PM 44.2500 -77.8000 49° Northeast 510 587 29,000  Level Toronto Center
10:42PM 44.3333 -77.6000 60° Northeast 510 587 29,000 -300 Level Toronto Center
10:43PM 44.4000 -77.4667 55° Northeast 510 587 28,500 -1,320 Descending Toronto Center
10:44PM 44.4667 -77.3000 61° Northeast 500 575 26,400 -2,100 Descending Toronto Center
10:45PM 44.5333 -77.1333 61° Northeast 480 552 24,300 -2,400 Descending Toronto Center
10:46PM 44.6167 -76.9833 52° Northeast 450 518 21,700 -2,460 Descending Toronto Center
10:47PM 44.6833 -76.8333 58° Northeast 420 483 19,400 -2,580 Descending Toronto Center
10:48PM 44.7500 -76.7167 51° Northeast 420 483 16,600 -2,760 Descending Toronto Center
10:49PM 44.8000 -76.5833 62° Northeast 420 483 13,900 -2,640 Descending Toronto Center
10:50PM 44.8667 -76.4833 47° Northeast 390 449 11,400 -1,980 Descending Toronto Center
10:51PM 44.9333 -76.3500 55° Northeast 350 403 10,000 -1,440 Descending Toronto Center
10:52PM 44.9833 -76.2667 50° Northeast 300 345 8,600 -1,740 Descending Toronto Center
10:53PM 45.0333 -76.1667 55° Northeast 290 334 6,600 -1,980 Descending Toronto Center
10:54PM 45.0833 -76.0833 50° Northeast 290 334 4,700 -1,800 Descending Toronto Center
10:55PM 45.1333 -76.0167 43° Northeast 290 334 3,000 -900 Descending Toronto Center
10:56PM 45.1667 -75.9167 65° Northeast 270 311 3,000  Level Toronto Center
10:57PM 45.2167 -75.8167 55° Northeast 270 311 3,000  Level Toronto Center